createdAt,value
2023-05-05T00:02:18.673Z,92086.67
2023-05-05T00:04:46.879Z,92083.04
2023-05-05T00:07:15.096Z,92084.05
2023-05-05T00:09:43.266Z,92082.17
2023-05-05T00:12:11.455Z,92084.71
2023-05-05T00:14:39.562Z,92083.89
2023-05-05T00:17:07.816Z,92082.02
2023-05-05T00:19:36.008Z,92079.34
2023-05-05T00:22:04.080Z,92077.34
2023-05-05T00:24:32.287Z,92074.52
2023-05-05T00:27:02.115Z,92069.91
2023-05-05T00:29:30.248Z,92065.15
2023-05-05T00:31:58.559Z,92059.52
2023-05-05T00:34:26.629Z,92055.58
2023-05-05T00:36:54.896Z,92053.28
2023-05-05T00:39:23.550Z,92053.84
2023-05-05T00:41:51.633Z,92048.16
2023-05-05T00:44:34.829Z,92047.07
2023-05-05T00:47:03.668Z,92046.29
2023-05-05T00:49:32.647Z,92045.11
2023-05-05T00:52:01.038Z,92044.11
2023-05-05T00:54:29.300Z,92045.05
2023-05-05T00:56:57.455Z,92046.56
2023-05-05T00:59:25.949Z,92042.55
2023-05-05T01:01:54.054Z,92046.45
2023-05-05T01:04:22.240Z,92050.65
2023-05-05T01:07:09.109Z,92049.34
2023-05-05T01:09:43.255Z,92047.73
2023-05-05T01:12:30.264Z,92047.25
2023-05-05T01:15:07.646Z,92052.70
2023-05-05T01:17:42.103Z,92047.86
2023-05-05T01:20:21.769Z,92042.77
2023-05-05T01:23:01.542Z,92041.07
2023-05-05T01:25:47.983Z,92030.63
2023-05-05T01:28:28.440Z,92033.93
2023-05-05T01:31:00.645Z,92029.38
2023-05-05T01:33:32.020Z,92027.58
2023-05-05T01:36:04.273Z,92022.30
2023-05-05T01:38:38.322Z,92020.73
2023-05-05T01:41:15.589Z,92017.81
2023-05-05T01:43:46.233Z,92016.65
2023-05-05T01:46:15.373Z,92018.21
2023-05-05T01:48:44.327Z,92021.05
2023-05-05T01:51:12.901Z,92021.70
2023-05-05T01:53:42.320Z,92026.90
2023-05-05T01:56:11.804Z,92027.66
2023-05-05T01:58:41.836Z,92028.69
2023-05-05T02:01:10.434Z,92030.40
2023-05-05T02:03:39.741Z,92035.68
2023-05-05T02:06:08.614Z,92035.45
2023-05-05T02:08:37.557Z,92035.38
2023-05-05T02:11:05.797Z,92034.19
2023-05-05T02:13:33.876Z,92038.12
2023-05-05T02:16:03.136Z,92035.40
2023-05-05T02:18:35.695Z,92038.52
2023-05-05T02:21:03.930Z,92038.02
2023-05-05T02:23:32.005Z,92041.27
2023-05-05T02:26:03.771Z,92044.64
2023-05-05T02:28:46.422Z,92041.07
2023-05-05T02:31:16.528Z,92036.86
2023-05-05T02:33:46.941Z,92042.17
2023-05-05T02:36:18.034Z,92045.25
2023-05-05T02:38:54.797Z,92050.02
2023-05-05T02:41:25.575Z,92054.11
2023-05-05T02:43:55.003Z,92051.37
2023-05-05T02:46:23.490Z,92053.13
2023-05-05T02:48:51.687Z,92048.52
2023-05-05T02:51:19.848Z,92049.26
2023-05-05T02:53:48.026Z,92049.47
2023-05-05T02:56:26.964Z,92047.50
2023-05-05T02:59:00.708Z,92048.63
2023-05-05T03:01:28.756Z,92048.68
2023-05-05T03:04:05.552Z,92051.41
2023-05-05T03:06:39.503Z,92047.15
2023-05-05T03:09:08.170Z,92046.95
2023-05-05T03:11:40.445Z,92046.55
2023-05-05T03:14:18.528Z,92048.24
2023-05-05T03:16:47.903Z,92048.44
2023-05-05T03:19:18.585Z,92050.34
2023-05-05T03:21:47.876Z,92049.23
2023-05-05T03:24:19.901Z,92045.13
2023-05-05T03:26:57.822Z,92046.26
2023-05-05T03:29:29.652Z,92046.34
2023-05-05T03:31:58.918Z,92047.84
2023-05-05T03:34:27.238Z,92048.73
2023-05-05T03:36:55.647Z,92051.83
2023-05-05T03:39:23.962Z,92050.16
2023-05-05T03:41:52.090Z,92053.99
2023-05-05T03:44:20.612Z,92054.59
2023-05-05T03:46:48.944Z,92061.18
2023-05-05T03:49:17.279Z,92067.86
2023-05-05T03:51:47.428Z,92072.22
2023-05-05T03:54:16.778Z,92074.09
2023-05-05T03:56:44.830Z,92074.02
2023-05-05T03:59:12.963Z,92073.80
2023-05-05T04:01:41.690Z,92069.52
2023-05-05T04:04:09.989Z,92072.45
2023-05-05T04:06:38.128Z,92070.13
2023-05-05T04:09:06.639Z,92074.02
2023-05-05T04:11:34.756Z,92079.34
2023-05-05T04:14:03.209Z,92078.81
2023-05-05T04:16:31.459Z,92084.66
2023-05-05T04:19:00.244Z,92085.85
2023-05-05T04:21:28.611Z,92089.23
2023-05-05T04:23:57.872Z,92093.27
2023-05-05T04:26:27.324Z,92092.96
2023-05-05T04:28:55.906Z,92097.09
2023-05-05T04:31:24.353Z,92092.40
2023-05-05T04:33:52.669Z,92091.48
2023-05-05T04:36:21.026Z,92095.21
2023-05-05T04:38:49.154Z,92091.50
2023-05-05T04:41:17.307Z,92094.86
2023-05-05T04:43:45.710Z,92097.30
2023-05-05T04:46:13.801Z,92091.90
2023-05-05T04:48:41.972Z,92095.77
2023-05-05T04:51:10.277Z,92097.86
2023-05-05T04:53:38.515Z,92095.84
2023-05-05T04:56:06.631Z,92099.91
2023-05-05T04:58:34.706Z,92102.41
2023-05-05T05:01:03.520Z,92104.77
2023-05-05T05:03:32.350Z,92110.94
2023-05-05T05:06:00.531Z,92106.02
2023-05-05T05:08:28.687Z,92107.44
2023-05-05T05:10:56.659Z,92110.14
2023-05-05T05:13:24.844Z,92107.99
2023-05-05T05:15:52.924Z,92109.24
2023-05-05T05:18:20.974Z,92105.56
2023-05-05T05:20:49.579Z,92107.96
2023-05-05T05:23:17.685Z,92111.15
2023-05-05T05:25:46.214Z,92113.52
2023-05-05T05:28:14.815Z,92111.48
2023-05-05T05:30:47.556Z,92117.42
2023-05-05T05:33:15.956Z,92115.60
2023-05-05T05:35:44.460Z,92119.20
2023-05-05T05:38:12.782Z,92117.41
2023-05-05T05:40:40.942Z,92114.84
2023-05-05T05:43:09.188Z,92116.39
2023-05-05T05:45:37.820Z,92114.63
2023-05-05T05:48:06.912Z,92113.88
2023-05-05T05:50:36.027Z,92106.73
2023-05-05T05:53:04.162Z,92105.38
2023-05-05T05:55:32.417Z,92110.08
2023-05-05T05:58:00.826Z,92108.15
2023-05-05T06:00:29.268Z,92111.11
2023-05-05T06:03:01.451Z,92111.66
2023-05-05T06:05:31.900Z,92113.16
2023-05-05T06:08:00.163Z,92112.64
2023-05-05T06:10:28.805Z,92115.05
2023-05-05T06:13:06.303Z,92111.80
2023-05-05T06:15:34.641Z,92112.64
2023-05-05T06:18:03.236Z,92104.77
2023-05-05T06:20:32.028Z,92102.60
2023-05-05T06:23:00.561Z,92099.14
2023-05-05T06:25:29.285Z,92098.52
2023-05-05T06:27:57.410Z,92101.05
2023-05-05T06:30:26.338Z,92100.85
2023-05-05T06:32:54.455Z,92102.26
2023-05-05T06:35:22.675Z,92099.19
2023-05-05T06:37:50.750Z,92096.83
2023-05-05T06:40:18.880Z,92095.92
2023-05-05T06:42:46.916Z,92095.38
2023-05-05T06:45:18.407Z,92098.25
2023-05-05T06:47:46.489Z,92102.80
2023-05-05T06:50:14.797Z,92101.30
2023-05-05T06:52:42.807Z,92097.86
2023-05-05T06:55:10.849Z,92097.92
2023-05-05T06:57:38.938Z,92102.38
2023-05-05T07:00:11.276Z,92101.86
2023-05-05T07:02:40.193Z,92099.52
2023-05-05T07:05:08.504Z,92101.66
2023-05-05T07:07:37.196Z,92099.29
2023-05-05T07:10:05.510Z,92099.00
2023-05-05T07:12:33.719Z,92097.80
2023-05-05T07:15:09.368Z,92096.59
2023-05-05T07:17:43.910Z,92097.03
2023-05-05T07:20:12.211Z,92093.83
2023-05-05T07:22:40.241Z,92094.16
2023-05-05T07:25:08.574Z,92096.27
2023-05-05T07:27:37.397Z,92097.90
2023-05-05T07:30:10.909Z,92096.87
2023-05-05T07:32:41.431Z,92099.91
2023-05-05T07:35:09.652Z,92099.68
2023-05-05T07:37:37.752Z,92100.34
2023-05-05T07:40:06.414Z,92102.73
2023-05-05T07:42:34.648Z,92101.31
2023-05-05T07:45:02.794Z,92098.14
2023-05-05T07:47:30.929Z,92095.11
2023-05-05T07:49:59.140Z,92097.75
2023-05-05T07:52:43.619Z,92096.86
2023-05-05T07:55:14.585Z,92094.42
2023-05-05T07:57:42.748Z,92095.45
2023-05-05T08:00:11.613Z,92095.21
2023-05-05T08:02:42.693Z,92094.36
2023-05-05T08:05:11.471Z,92091.01
2023-05-05T08:07:41.673Z,92088.34
2023-05-05T08:10:13.293Z,92091.90
2023-05-05T08:12:41.558Z,92095.56
2023-05-05T08:15:10.047Z,92095.73
2023-05-05T08:17:46.277Z,92101.57
2023-05-05T08:20:14.730Z,92098.16
2023-05-05T08:22:43.107Z,92094.72
2023-05-05T08:25:11.419Z,92103.23
2023-05-05T08:27:40.344Z,92101.75
2023-05-05T08:30:09.178Z,92099.45
2023-05-05T08:32:38.437Z,92097.60
2023-05-05T08:35:07.455Z,92096.44
2023-05-05T08:37:35.963Z,92095.23
2023-05-05T08:40:04.721Z,92094.27
2023-05-05T08:42:38.628Z,92098.16
2023-05-05T08:45:08.679Z,92101.23
2023-05-05T08:47:37.521Z,92102.54
2023-05-05T08:50:06.276Z,92102.57
2023-05-05T08:52:42.228Z,92105.43
2023-05-05T08:55:15.526Z,92103.12
2023-05-05T08:57:51.713Z,92099.90
2023-05-05T09:00:20.588Z,92102.48
2023-05-05T09:02:49.161Z,92099.80
2023-05-05T09:05:18.008Z,92098.00
2023-05-05T09:07:47.432Z,92097.06
2023-05-05T09:10:15.750Z,92098.35
2023-05-05T09:12:43.961Z,92100.14
2023-05-05T09:15:13.140Z,92094.93
2023-05-05T09:17:41.844Z,92096.02
2023-05-05T09:20:10.961Z,92095.98
2023-05-05T09:22:46.309Z,92099.23
2023-05-05T09:25:15.278Z,92102.77
2023-05-05T09:27:47.387Z,92098.19
2023-05-05T09:30:16.813Z,92099.68
2023-05-05T09:32:46.222Z,92097.98
2023-05-05T09:35:14.921Z,92094.97
2023-05-05T09:37:43.247Z,92101.13
2023-05-05T09:40:13.372Z,92099.98
2023-05-05T09:42:41.580Z,92101.02
2023-05-05T09:45:15.524Z,92100.04
2023-05-05T09:47:43.612Z,92100.58
2023-05-05T09:50:19.142Z,92102.14
2023-05-05T09:52:56.212Z,92098.00
2023-05-05T09:55:25.168Z,92099.64
2023-05-05T09:57:53.392Z,92098.76
2023-05-05T10:00:22.079Z,92097.34
2023-05-05T10:02:50.278Z,92096.55
2023-05-05T10:05:18.849Z,92093.40
2023-05-05T10:07:48.003Z,92091.39
2023-05-05T10:10:17.664Z,92092.75
2023-05-05T10:12:49.776Z,92091.42
2023-05-05T10:15:18.296Z,92093.64
2023-05-05T10:18:02.152Z,92095.23
2023-05-05T10:20:36.518Z,92095.54
2023-05-05T10:23:06.860Z,92093.88
2023-05-05T10:25:39.316Z,92094.36
2023-05-05T10:28:09.947Z,92090.15
2023-05-05T10:30:42.213Z,92083.75
2023-05-05T10:33:31.009Z,92088.54
2023-05-05T10:36:02.617Z,92085.09
2023-05-05T10:38:31.754Z,92084.25
2023-05-05T10:41:01.629Z,92085.73
2023-05-05T10:43:30.816Z,92084.23
2023-05-05T10:45:59.331Z,92082.63
2023-05-05T10:48:33.624Z,92080.05
2023-05-05T10:51:10.634Z,92081.00
2023-05-05T10:53:44.557Z,92080.84
2023-05-05T10:56:12.676Z,92079.27
2023-05-05T10:58:55.387Z,92076.46
2023-05-05T11:01:34.133Z,92073.86
2023-05-05T11:04:21.944Z,92073.80
2023-05-05T11:07:09.639Z,92068.04
2023-05-05T11:09:54.856Z,92068.49
2023-05-05T11:12:23.055Z,92065.64
2023-05-05T11:15:09.605Z,92064.48
2023-05-05T11:17:47.268Z,92063.58
2023-05-05T11:20:15.305Z,92065.58
2023-05-05T11:23:02.193Z,92060.02
2023-05-05T11:25:36.698Z,92057.66
2023-05-05T11:28:05.232Z,92053.35
2023-05-05T11:30:33.463Z,92053.75
2023-05-05T11:33:20.142Z,92051.41
2023-05-05T11:35:57.372Z,92053.70
2023-05-05T11:38:41.480Z,92048.95
2023-05-05T11:41:18.401Z,92043.45
2023-05-05T11:43:46.643Z,92042.90
2023-05-05T11:46:15.329Z,92045.09
2023-05-05T11:48:47.129Z,92042.20
2023-05-05T11:51:16.427Z,92042.26
2023-05-05T11:53:48.326Z,92035.24
2023-05-05T11:56:21.846Z,92033.23
2023-05-05T11:59:04.889Z,92033.09
2023-05-05T12:01:33.156Z,92036.36
2023-05-05T12:04:01.725Z,92033.81
2023-05-05T12:06:32.487Z,92034.36
2023-05-05T12:09:01.288Z,92028.73
2023-05-05T12:11:29.334Z,92025.88
2023-05-05T12:14:11.912Z,92022.00
2023-05-05T12:16:40.152Z,92026.39
2023-05-05T12:19:08.713Z,92016.92
2023-05-05T12:21:36.762Z,92013.44
2023-05-05T12:24:05.012Z,92015.17
2023-05-05T12:26:33.109Z,92014.19
2023-05-05T12:29:01.383Z,92012.17
2023-05-05T12:31:39.540Z,92008.07
2023-05-05T12:34:08.959Z,92005.40
2023-05-05T12:36:37.616Z,92005.13
2023-05-05T12:39:05.763Z,91999.78
2023-05-05T12:41:34.408Z,91997.79
2023-05-05T12:44:05.302Z,91995.45
2023-05-05T12:46:44.591Z,91993.93
2023-05-05T12:49:12.658Z,91994.84
2023-05-05T12:51:52.634Z,91990.38
2023-05-05T12:54:20.709Z,91988.23
2023-05-05T12:56:48.703Z,91990.97
2023-05-05T12:59:22.833Z,91987.36
2023-05-05T13:01:52.102Z,91986.71
2023-05-05T13:04:21.510Z,91988.41
2023-05-05T13:06:51.396Z,91983.45
2023-05-05T13:09:27.897Z,91980.79
2023-05-05T13:11:56.502Z,91979.41
2023-05-05T13:14:24.566Z,91981.30
2023-05-05T13:16:52.967Z,91978.83
2023-05-05T13:19:21.073Z,91979.98
2023-05-05T13:21:49.210Z,91978.04
2023-05-05T13:26:48.915Z,91973.77
2023-05-05T13:29:17.194Z,91975.41
2023-05-05T13:31:45.958Z,91970.31
2023-05-05T13:34:14.281Z,91969.80
2023-05-05T13:36:42.391Z,91964.78
2023-05-05T13:39:10.588Z,91962.16
2023-05-05T13:41:38.652Z,91961.11
2023-05-05T13:44:06.714Z,91955.81
2023-05-05T13:46:34.852Z,91957.56
2023-05-05T13:49:02.962Z,91953.41
2023-05-05T13:51:31.179Z,91952.01
2023-05-05T13:53:59.231Z,91949.51
2023-05-05T13:56:27.939Z,91945.95
2023-05-05T13:58:56.053Z,91944.81
2023-05-05T14:01:24.152Z,91945.91
2023-05-05T14:03:52.261Z,91946.14
2023-05-05T14:06:20.365Z,91944.23
2023-05-05T14:08:48.596Z,91939.86
2023-05-05T14:11:18.261Z,91937.80
2023-05-05T14:13:46.707Z,91942.92
2023-05-05T14:16:14.928Z,91942.08
2023-05-05T14:18:43.251Z,91940.27
2023-05-05T14:21:11.400Z,91935.86
2023-05-05T14:23:39.410Z,91932.45
2023-05-05T14:26:09.132Z,91933.19
2023-05-05T14:28:37.329Z,91930.34
2023-05-05T14:31:05.488Z,91931.79
2023-05-05T14:33:33.587Z,91933.23
2023-05-05T14:36:01.675Z,91931.20
2023-05-05T14:38:29.801Z,91932.29
2023-05-05T14:40:57.875Z,91929.59
2023-05-05T14:43:25.964Z,91924.55
2023-05-05T14:45:54.161Z,91924.56
2023-05-05T14:48:22.573Z,91925.70
2023-05-05T14:50:50.936Z,91926.98
2023-05-05T14:53:19.455Z,91928.14
2023-05-05T14:55:47.509Z,91929.04
2023-05-05T14:58:15.792Z,91930.27
2023-05-05T15:00:43.819Z,91935.13
2023-05-05T15:03:11.851Z,91935.11
2023-05-05T15:05:39.941Z,91931.61
2023-05-05T15:08:08.037Z,91938.45
2023-05-05T15:10:36.083Z,91937.85
2023-05-05T15:13:04.211Z,91936.02
2023-05-05T15:15:32.282Z,91938.95
2023-05-05T15:18:00.428Z,91943.28
2023-05-05T15:20:28.601Z,91938.02
2023-05-05T15:22:57.045Z,91934.58
2023-05-05T15:25:25.186Z,91936.40
2023-05-05T15:27:53.367Z,91933.37
2023-05-05T15:30:21.438Z,91938.02
2023-05-05T15:32:49.546Z,91943.56
2023-05-05T15:35:17.805Z,91941.09
2023-05-05T15:37:46.026Z,91941.16
2023-05-05T15:40:14.022Z,91940.83
2023-05-05T15:42:42.224Z,91939.66
2023-05-05T15:45:14.945Z,91934.30
2023-05-05T15:47:43.026Z,91928.50
2023-05-05T15:50:11.103Z,91925.30
2023-05-05T15:52:39.178Z,91925.41
2023-05-05T15:55:07.859Z,91924.60
2023-05-05T15:57:36.782Z,91922.89
2023-05-05T16:00:05.097Z,91922.39
2023-05-05T16:02:35.805Z,91920.83
2023-05-05T16:05:04.876Z,91924.41
2023-05-05T16:07:32.976Z,91927.20
2023-05-05T16:10:01.060Z,91927.81
2023-05-05T16:12:29.180Z,91925.41
2023-05-05T16:14:57.403Z,91924.16
2023-05-05T16:17:25.572Z,91926.20
2023-05-05T16:19:53.688Z,91927.45
2023-05-05T16:22:21.699Z,91928.91
2023-05-05T16:24:49.801Z,91932.55
2023-05-05T16:27:17.937Z,91931.79
2023-05-05T16:29:46.031Z,91934.66
2023-05-05T16:32:14.110Z,91935.27
2023-05-05T16:34:42.243Z,91942.03
2023-05-05T16:37:10.374Z,91946.05
2023-05-05T16:39:40.384Z,91943.58
2023-05-05T16:42:08.623Z,91945.73
2023-05-05T16:44:36.712Z,91947.27
2023-05-05T16:47:04.886Z,91947.73
2023-05-05T16:49:32.992Z,91951.06
2023-05-05T16:52:01.091Z,91955.06
2023-05-05T16:54:29.079Z,91960.86
2023-05-05T16:56:57.062Z,91959.60
2023-05-05T16:59:25.067Z,91960.57
2023-05-05T17:01:53.187Z,91963.66
2023-05-05T17:04:21.322Z,91965.59
2023-05-05T17:06:49.681Z,91964.08
2023-05-05T17:09:17.979Z,91965.52
2023-05-05T17:11:46.102Z,91963.70
2023-05-05T17:14:14.186Z,91963.09
2023-05-05T17:16:42.519Z,91962.23
2023-05-05T17:19:10.605Z,91961.67
2023-05-05T17:21:38.699Z,91964.29
2023-05-05T17:24:07.145Z,91965.36
2023-05-05T17:26:35.267Z,91968.00
2023-05-05T17:29:03.339Z,91966.23
2023-05-05T17:31:31.468Z,91970.01
2023-05-05T17:33:59.729Z,91972.76
2023-05-05T17:36:27.803Z,91974.16
2023-05-05T17:38:56.083Z,91974.50
2023-05-05T17:41:25.695Z,91973.27
2023-05-05T17:43:53.852Z,91976.63
2023-05-05T17:46:21.959Z,91977.91
2023-05-05T17:48:50.126Z,91980.13
2023-05-05T17:51:18.206Z,91981.23
2023-05-05T17:53:46.276Z,91984.59
2023-05-05T17:56:14.341Z,91990.33
2023-05-05T17:58:42.437Z,91993.19
2023-05-05T18:01:19.480Z,91996.84
2023-05-05T18:03:47.602Z,91990.51
2023-05-05T18:06:15.871Z,91992.23
2023-05-05T18:08:44.780Z,91997.70
2023-05-05T18:11:12.895Z,92006.06
2023-05-05T18:13:40.973Z,92011.63
2023-05-05T18:16:09.015Z,92013.23
2023-05-05T18:18:37.308Z,92014.25
2023-05-05T18:21:05.364Z,92015.40
2023-05-05T18:23:33.571Z,92015.98
2023-05-05T18:26:01.710Z,92015.77
2023-05-05T18:28:29.716Z,92025.89
2023-05-05T18:30:57.815Z,92026.57
2023-05-05T18:33:26.678Z,92025.02
2023-05-05T18:35:54.839Z,92028.64
2023-05-05T18:38:22.955Z,92028.70
2023-05-05T18:40:51.068Z,92026.99
2023-05-05T18:43:19.151Z,92025.90
2023-05-05T18:45:47.250Z,92025.70
2023-05-05T18:48:15.495Z,92030.52
2023-05-05T18:50:43.574Z,92026.35
2023-05-05T18:53:13.732Z,92026.23
2023-05-05T18:55:43.470Z,92024.33
2023-05-05T18:58:11.556Z,92029.04
2023-05-05T19:00:39.586Z,92030.58
2023-05-05T19:03:07.864Z,92033.45
2023-05-05T19:05:36.161Z,92034.69
2023-05-05T19:08:04.285Z,92036.91
2023-05-05T19:10:32.424Z,92038.19
2023-05-05T19:13:00.950Z,92037.92
2023-05-05T19:15:29.395Z,92036.94
2023-05-05T19:17:57.543Z,92034.98
2023-05-05T19:20:25.695Z,92037.67
2023-05-05T19:22:53.695Z,92038.98
2023-05-05T19:25:21.874Z,92039.52
2023-05-05T19:27:49.916Z,92039.39
2023-05-05T19:30:18.027Z,92041.21
2023-05-05T19:32:46.241Z,92036.75
2023-05-05T19:35:14.411Z,92039.50
2023-05-05T19:37:42.517Z,92040.83
2023-05-05T19:40:11.169Z,92043.45
2023-05-05T19:42:39.814Z,92042.59
2023-05-05T19:45:08.122Z,92042.10
2023-05-05T19:47:36.399Z,92045.46
2023-05-05T19:50:04.748Z,92042.04
2023-05-05T19:52:32.846Z,92046.03
2023-05-05T19:55:01.158Z,92046.09
2023-05-05T19:57:29.531Z,92044.52
2023-05-05T19:59:57.638Z,92042.58
2023-05-05T20:02:27.225Z,92040.20
2023-05-05T20:04:55.468Z,92039.52
2023-05-05T20:07:23.713Z,92036.05
2023-05-05T20:09:51.771Z,92034.25
2023-05-05T20:12:21.984Z,92033.31
2023-05-05T20:14:50.206Z,92036.83
2023-05-05T20:17:20.420Z,92032.52
2023-05-05T20:19:48.517Z,92036.83
2023-05-05T20:22:17.156Z,92038.98
2023-05-05T20:24:45.163Z,92036.52
2023-05-05T20:27:13.256Z,92034.83
2023-05-05T20:29:41.393Z,92036.30
2023-05-05T20:32:09.473Z,92040.15
2023-05-05T20:34:38.931Z,92040.60
2023-05-05T20:37:07.055Z,92043.37
2023-05-05T20:39:35.231Z,92041.63
2023-05-05T20:42:03.346Z,92039.71
2023-05-05T20:44:31.505Z,92036.67
2023-05-05T20:46:59.714Z,92039.04
2023-05-05T20:49:27.950Z,92035.45
2023-05-05T20:51:56.044Z,92035.77
2023-05-05T20:54:24.193Z,92035.11
2023-05-05T20:56:53.266Z,92035.93
2023-05-05T20:59:21.278Z,92038.44
2023-05-05T21:01:49.355Z,92038.31
2023-05-05T21:04:17.523Z,92036.55
2023-05-05T21:06:46.008Z,92035.42
2023-05-05T21:09:14.125Z,92035.25
2023-05-05T21:11:42.497Z,92027.77
2023-05-05T21:14:11.064Z,92029.46
2023-05-05T21:16:39.164Z,92031.67
2023-05-05T21:19:07.268Z,92029.97
2023-05-05T21:21:35.316Z,92028.50
2023-05-05T21:24:04.908Z,92029.85
2023-05-05T21:26:34.365Z,92026.30
2023-05-05T21:29:02.419Z,92031.95
2023-05-05T21:31:30.549Z,92033.09
2023-05-05T21:33:58.641Z,92035.39
2023-05-05T21:36:27.480Z,92036.33
2023-05-05T21:38:58.372Z,92032.48
2023-05-05T21:41:27.979Z,92030.16
2023-05-05T21:43:56.177Z,92028.56
2023-05-05T21:46:24.200Z,92028.64
2023-05-05T21:48:52.226Z,92032.20
2023-05-05T21:51:20.388Z,92036.11
2023-05-05T21:53:48.447Z,92038.66
2023-05-05T21:56:16.758Z,92033.48
2023-05-05T21:58:44.928Z,92033.97
2023-05-05T22:01:13.028Z,92034.52
2023-05-05T22:03:43.654Z,92032.56
2023-05-05T22:06:12.488Z,92032.07
2023-05-05T22:08:40.591Z,92028.41
2023-05-05T22:11:08.676Z,92025.33
2023-05-05T22:13:37.693Z,92026.29
2023-05-05T22:16:06.498Z,92019.36
2023-05-05T22:18:35.246Z,92020.20
2023-05-05T22:21:03.697Z,92022.58
2023-05-05T22:23:32.111Z,92027.00
2023-05-05T22:26:00.179Z,92025.67
2023-05-05T22:28:28.337Z,92030.91
2023-05-05T22:30:56.471Z,92026.36
2023-05-05T22:33:24.746Z,92026.67
2023-05-05T22:35:53.394Z,92020.98
2023-05-05T22:38:21.521Z,92021.59
2023-05-05T22:40:49.601Z,92023.58
2023-05-05T22:43:17.735Z,92023.29
2023-05-05T22:45:45.879Z,92020.92
2023-05-05T22:48:13.913Z,92021.45
2023-05-05T22:50:42.119Z,92022.63
2023-05-05T22:53:10.240Z,92023.47
2023-05-05T22:55:38.222Z,92023.90
2023-05-05T22:58:06.545Z,92027.92
2023-05-05T23:00:34.606Z,92033.65
2023-05-05T23:03:02.570Z,92034.59
2023-05-05T23:05:30.719Z,92035.80
2023-05-05T23:08:01.298Z,92031.29
2023-05-05T23:10:29.853Z,92029.67
2023-05-05T23:12:57.901Z,92032.21
2023-05-05T23:15:26.160Z,92031.09
2023-05-05T23:17:54.361Z,92028.24
2023-05-05T23:20:22.538Z,92026.91
2023-05-05T23:22:50.765Z,92023.87
2023-05-05T23:25:18.971Z,92022.00
2023-05-05T23:27:48.045Z,92018.69
2023-05-05T23:30:16.385Z,92019.76
2023-05-05T23:32:45.132Z,92018.17
2023-05-05T23:35:13.313Z,92024.55
2023-05-05T23:37:41.634Z,92023.08
2023-05-05T23:40:09.808Z,92022.75
2023-05-05T23:42:37.913Z,92024.64
2023-05-05T23:45:06.241Z,92023.64
2023-05-05T23:47:34.393Z,92020.48
2023-05-05T23:50:02.764Z,92019.15
2023-05-05T23:52:30.810Z,92016.66
2023-05-05T23:54:58.913Z,92016.48
2023-05-05T23:57:26.963Z,92015.79
2023-05-05T23:59:55.074Z,92011.60
